createdAt,value
2023-01-17T00:01:11.161Z,97714.38
2023-01-17T00:03:57.632Z,97644.16
2023-01-17T00:06:44.026Z,97680.03
2023-01-17T00:09:30.203Z,97665.13
2023-01-17T00:11:57.495Z,97636.50
2023-01-17T00:14:23.966Z,97618.06
2023-01-17T00:16:50.340Z,97672.88
2023-01-17T00:19:35.524Z,97598.41
2023-01-17T00:22:26.993Z,97737.72
2023-01-17T00:25:11.676Z,97756.47
2023-01-17T00:27:37.967Z,97737.84
2023-01-17T00:30:04.793Z,97655.13
2023-01-17T00:32:31.087Z,97618.75
2023-01-17T00:34:57.386Z,97732.28
2023-01-17T00:37:23.680Z,97673.22
2023-01-17T00:39:49.982Z,97610.03
2023-01-17T00:42:16.342Z,97780.41
2023-01-17T00:45:01.037Z,97729.31
2023-01-17T00:47:45.775Z,97775.66
2023-01-17T00:50:34.247Z,97785.41
2023-01-17T00:53:23.550Z,97797.78
2023-01-17T00:56:08.525Z,97785.53
2023-01-17T00:58:53.452Z,97788.97
2023-01-17T01:01:38.224Z,97801.09
2023-01-17T01:04:23.463Z,97797.50
2023-01-17T01:07:08.175Z,97806.25
2023-01-17T01:09:52.871Z,97787.41
2023-01-17T01:12:37.609Z,97797.97
2023-01-17T01:15:22.902Z,97809.25
2023-01-17T01:18:07.703Z,97848.69
2023-01-17T01:20:52.472Z,97817.28
2023-01-17T01:23:37.281Z,97840.41
2023-01-17T01:26:22.487Z,97840.97
2023-01-17T01:29:07.297Z,97851.50
2023-01-17T01:32:10.802Z,97845.00
2023-01-17T01:34:37.226Z,97778.69
2023-01-17T01:37:03.616Z,97770.69
2023-01-17T01:39:30.000Z,97866.03
2023-01-17T01:41:58.922Z,97785.53
2023-01-17T01:44:45.389Z,97831.06
2023-01-17T01:47:16.186Z,97857.75
2023-01-17T01:49:43.366Z,97901.22
2023-01-17T01:52:11.696Z,97896.09
2023-01-17T01:54:44.517Z,97848.38
2023-01-17T01:57:15.099Z,97914.16
2023-01-17T01:59:46.680Z,97895.25
2023-01-17T02:02:13.730Z,97789.94
2023-01-17T02:04:40.276Z,97925.75
2023-01-17T02:07:12.933Z,97788.44
2023-01-17T02:09:39.328Z,97841.28
2023-01-17T02:12:06.247Z,97916.91
2023-01-17T02:14:32.675Z,97911.13
2023-01-17T02:17:17.509Z,97934.81
2023-01-17T02:19:43.865Z,97941.53
2023-01-17T02:22:53.784Z,97944.91
2023-01-17T02:25:44.092Z,97950.66
2023-01-17T02:28:38.558Z,97960.44
2023-01-17T02:31:14.539Z,97927.44
2023-01-17T02:33:51.923Z,97955.75
2023-01-17T02:36:36.187Z,97946.00
2023-01-17T02:39:09.113Z,97936.75
2023-01-17T02:41:45.496Z,97917.50
2023-01-17T02:44:16.969Z,97944.72
2023-01-17T02:47:05.404Z,97943.41
2023-01-17T02:49:32.358Z,97929.69
2023-01-17T02:52:24.600Z,97936.13
2023-01-17T02:55:11.183Z,97958.63
2023-01-17T02:57:52.908Z,97986.97
2023-01-17T03:00:37.326Z,97941.59
2023-01-17T03:03:09.389Z,98001.13
2023-01-17T03:05:44.276Z,97894.66
2023-01-17T03:08:11.952Z,97968.88
2023-01-17T03:10:39.811Z,97868.50
2023-01-17T03:13:06.256Z,97937.50
2023-01-17T03:15:32.768Z,98009.88
2023-01-17T03:18:04.457Z,97908.84
2023-01-17T03:20:31.017Z,97890.69
2023-01-17T03:22:57.416Z,97978.34
2023-01-17T03:25:23.841Z,97990.09
2023-01-17T03:27:50.240Z,97974.75
2023-01-17T03:30:17.619Z,97890.50
2023-01-17T03:32:44.032Z,97989.66
2023-01-17T03:35:10.468Z,97978.47
2023-01-17T03:37:36.813Z,97998.06
2023-01-17T03:40:03.624Z,97917.44
2023-01-17T03:42:29.950Z,97894.66
2023-01-17T03:44:56.298Z,97985.53
2023-01-17T03:47:22.647Z,97973.72
2023-01-17T03:49:49.004Z,97930.56
2023-01-17T03:52:15.385Z,98017.94
2023-01-17T03:54:41.753Z,97924.75
2023-01-17T03:57:08.554Z,97908.50
2023-01-17T03:59:35.057Z,98032.22
2023-01-17T04:02:01.700Z,98031.81
2023-01-17T04:04:28.135Z,98014.94
2023-01-17T04:06:54.616Z,98024.75
2023-01-17T04:09:21.182Z,97917.66
2023-01-17T04:11:50.721Z,98011.34
2023-01-17T04:14:17.602Z,98020.13
2023-01-17T04:16:44.329Z,98034.94
2023-01-17T04:19:13.348Z,98013.06
2023-01-17T04:21:39.717Z,97964.06
2023-01-17T04:24:06.530Z,98006.09
2023-01-17T04:26:32.969Z,97910.88
2023-01-17T04:28:59.333Z,97920.28
2023-01-17T04:31:25.826Z,98018.66
2023-01-17T04:33:52.214Z,97951.38
2023-01-17T04:36:18.755Z,98028.13
2023-01-17T04:38:45.230Z,97915.28
2023-01-17T04:41:11.640Z,98041.00
2023-01-17T04:43:38.090Z,98021.84
2023-01-17T04:46:05.896Z,98047.97
2023-01-17T04:48:33.175Z,97927.13
2023-01-17T04:51:04.404Z,98019.13
2023-01-17T04:53:31.511Z,98020.34
2023-01-17T04:55:58.042Z,98015.28
2023-01-17T04:58:24.386Z,97915.88
2023-01-17T05:00:51.734Z,98029.19
2023-01-17T05:03:19.296Z,98049.75
2023-01-17T05:05:46.388Z,98020.44
2023-01-17T05:08:13.137Z,98048.16
2023-01-17T05:10:39.926Z,97932.25
2023-01-17T05:13:09.084Z,98030.47
2023-01-17T05:15:38.172Z,97970.53
2023-01-17T05:18:08.453Z,97898.44
2023-01-17T05:20:36.485Z,97848.25
2023-01-17T05:23:02.946Z,97917.34
2023-01-17T05:25:31.705Z,98016.78
2023-01-17T05:28:02.060Z,97984.88
2023-01-17T05:30:30.717Z,97938.81
2023-01-17T05:32:58.093Z,98056.50
2023-01-17T05:35:27.049Z,98063.78
2023-01-17T05:37:53.402Z,98033.97
2023-01-17T05:40:22.763Z,98071.41
2023-01-17T05:42:51.661Z,98015.88
2023-01-17T05:45:20.142Z,98043.06
2023-01-17T05:47:48.534Z,98065.91
2023-01-17T05:50:18.493Z,98069.91
2023-01-17T05:52:53.162Z,98059.88
2023-01-17T05:55:19.888Z,98000.53
2023-01-17T05:57:47.041Z,98051.94
2023-01-17T06:00:16.738Z,97953.34
2023-01-17T06:02:44.167Z,98071.19
2023-01-17T06:05:11.253Z,98083.09
2023-01-17T06:07:37.870Z,98074.97
2023-01-17T06:10:05.485Z,98082.56
2023-01-17T06:12:32.335Z,97938.38
2023-01-17T06:14:58.847Z,97928.59
2023-01-17T06:17:25.283Z,98004.31
2023-01-17T06:19:54.368Z,97942.63
2023-01-17T06:22:21.262Z,98011.97
2023-01-17T06:24:47.770Z,98001.75
2023-01-17T06:27:16.858Z,98076.09
2023-01-17T06:29:43.184Z,98072.53
2023-01-17T06:32:09.701Z,98055.50
2023-01-17T06:34:37.925Z,98067.69
2023-01-17T06:37:04.314Z,98083.59
2023-01-17T06:39:30.740Z,98064.47
2023-01-17T06:41:57.108Z,98076.16
2023-01-17T06:44:24.404Z,97975.59
2023-01-17T06:46:50.865Z,97885.41
2023-01-17T06:49:19.529Z,97941.22
2023-01-17T06:51:46.066Z,98059.63
2023-01-17T06:54:12.651Z,97907.13
2023-01-17T06:56:39.142Z,98079.50
2023-01-17T06:59:05.605Z,98054.66
2023-01-17T07:01:32.429Z,98025.38
2023-01-17T07:03:58.918Z,98036.34
2023-01-17T07:06:28.699Z,98078.41
2023-01-17T07:08:56.419Z,98100.28
2023-01-17T07:11:24.940Z,98101.50
2023-01-17T07:13:55.431Z,98020.16
2023-01-17T07:16:22.001Z,98029.41
2023-01-17T07:18:48.477Z,98090.97
2023-01-17T07:21:15.592Z,98020.88
2023-01-17T07:23:41.989Z,98096.25
2023-01-17T07:26:08.613Z,98104.28
2023-01-17T07:28:37.298Z,98081.97
2023-01-17T07:31:07.918Z,98092.56
2023-01-17T07:33:35.059Z,98115.38
2023-01-17T07:36:08.509Z,98117.88
2023-01-17T07:38:35.266Z,98099.16
2023-01-17T07:41:02.251Z,98026.66
2023-01-17T07:43:30.929Z,98092.44
2023-01-17T07:45:57.481Z,98018.44
2023-01-17T07:48:27.143Z,97907.88
2023-01-17T07:50:58.316Z,97930.34
2023-01-17T07:53:27.148Z,98110.28
2023-01-17T07:55:56.351Z,98104.38
2023-01-17T07:58:22.827Z,98098.38
2023-01-17T08:00:49.412Z,97986.38
2023-01-17T08:03:17.582Z,97903.88
2023-01-17T08:05:53.198Z,97979.72
2023-01-17T08:08:19.661Z,98026.13
2023-01-17T08:10:46.053Z,98099.31
2023-01-17T08:13:12.378Z,98104.34
2023-01-17T08:15:38.853Z,98100.91
2023-01-17T08:18:05.357Z,97999.97
2023-01-17T08:20:31.773Z,97982.81
2023-01-17T08:23:00.767Z,98042.69
2023-01-17T08:25:27.375Z,98102.78
2023-01-17T08:27:57.484Z,98004.03
2023-01-17T08:30:24.540Z,98101.00
2023-01-17T08:32:50.923Z,98053.91
2023-01-17T08:35:17.357Z,98059.66
2023-01-17T08:37:43.781Z,98126.22
2023-01-17T08:40:11.061Z,98104.66
2023-01-17T08:42:40.048Z,98131.72
2023-01-17T08:45:08.752Z,97954.72
2023-01-17T08:47:35.954Z,98052.13
2023-01-17T08:50:03.490Z,97967.28
2023-01-17T08:52:29.924Z,98112.50
2023-01-17T08:54:56.483Z,97976.13
2023-01-17T08:57:25.395Z,97952.22
2023-01-17T08:59:51.857Z,98037.13
2023-01-17T09:02:20.061Z,98142.16
2023-01-17T09:04:48.390Z,98012.69
2023-01-17T09:07:19.574Z,98136.84
2023-01-17T09:09:48.265Z,98112.13
2023-01-17T09:12:14.691Z,98029.19
2023-01-17T09:14:43.005Z,98057.56
2023-01-17T09:17:09.461Z,97980.00
2023-01-17T09:19:39.043Z,98146.63
2023-01-17T09:22:06.567Z,98056.31
2023-01-17T09:24:34.524Z,97943.53
2023-01-17T09:27:01.026Z,98050.81
2023-01-17T09:29:27.984Z,98154.09
2023-01-17T09:31:54.377Z,98138.75
2023-01-17T09:34:21.185Z,98044.75
2023-01-17T09:36:47.694Z,98002.56
2023-01-17T09:39:15.202Z,97964.81
2023-01-17T09:42:02.889Z,98154.44
2023-01-17T09:44:45.123Z,98123.38
2023-01-17T09:47:18.367Z,98154.97
2023-01-17T09:49:47.078Z,98103.47
2023-01-17T09:52:20.901Z,98152.88
2023-01-17T09:54:49.324Z,98075.25
2023-01-17T09:57:38.377Z,98165.66
2023-01-17T10:00:36.915Z,98065.25
2023-01-17T10:03:14.356Z,98024.50
2023-01-17T10:05:59.597Z,98168.59
2023-01-17T10:08:50.489Z,98185.78
2023-01-17T10:11:47.561Z,98106.47
2023-01-17T10:14:22.603Z,98063.06
2023-01-17T10:17:18.657Z,98086.00
2023-01-17T10:20:33.872Z,98118.06
2023-01-17T10:23:25.268Z,98169.81
2023-01-17T10:26:01.182Z,98107.59
2023-01-17T10:28:34.619Z,97957.34
2023-01-17T10:31:07.284Z,98168.34
2023-01-17T10:34:01.229Z,98085.91
2023-01-17T10:36:34.578Z,98035.56
2023-01-17T10:39:13.357Z,98153.03
2023-01-17T10:41:46.273Z,97979.16
2023-01-17T10:44:25.104Z,98025.06
2023-01-17T10:46:54.573Z,98163.16
2023-01-17T10:49:23.575Z,98085.25
2023-01-17T10:52:03.437Z,98085.00
2023-01-17T10:54:51.764Z,98157.31
2023-01-17T10:57:24.074Z,98134.94
2023-01-17T10:59:51.533Z,98148.69
2023-01-17T11:02:24.566Z,98123.03
2023-01-17T11:04:54.510Z,98138.69
2023-01-17T11:07:22.763Z,97924.13
2023-01-17T11:09:52.681Z,98132.34
2023-01-17T11:12:45.035Z,98127.50
2023-01-17T11:15:11.335Z,98134.84
2023-01-17T11:17:43.615Z,98115.19
2023-01-17T11:20:20.132Z,98129.03
2023-01-17T11:23:21.181Z,97911.75
2023-01-17T11:25:52.409Z,98113.88
2023-01-17T11:28:26.118Z,98125.06
2023-01-17T11:31:08.832Z,98127.06
2023-01-17T11:33:48.981Z,98123.41
2023-01-17T11:36:30.243Z,98046.69
2023-01-17T11:39:02.800Z,98121.00
2023-01-17T11:42:07.560Z,97928.13
2023-01-17T11:44:36.087Z,97947.69
2023-01-17T11:47:12.380Z,98081.94
2023-01-17T11:49:44.600Z,98020.16
2023-01-17T11:52:18.882Z,97999.28
2023-01-17T11:54:46.711Z,98105.50
2023-01-17T11:57:35.033Z,98002.69
2023-01-17T12:00:23.913Z,98108.66
2023-01-17T12:03:10.769Z,98114.59
2023-01-17T12:05:58.783Z,98117.47
2023-01-17T12:08:46.527Z,98107.41
2023-01-17T12:11:22.083Z,98020.31
2023-01-17T12:14:07.319Z,98108.16
2023-01-17T12:16:36.480Z,98104.28
2023-01-17T12:19:48.796Z,98106.00
2023-01-17T12:22:35.912Z,98090.78
2023-01-17T12:25:14.785Z,98073.81
2023-01-17T12:28:11.343Z,98020.53
2023-01-17T12:30:44.277Z,98069.47
2023-01-17T12:33:26.710Z,98047.81
2023-01-17T12:35:56.029Z,98093.31
2023-01-17T12:38:33.419Z,98070.16
2023-01-17T12:41:08.254Z,98091.66
2023-01-17T12:43:39.515Z,97952.06
2023-01-17T12:46:21.363Z,97984.50
2023-01-17T12:48:52.858Z,98087.38
2023-01-17T12:51:27.698Z,98066.53
2023-01-17T12:54:02.165Z,98064.41
2023-01-17T12:56:33.612Z,98070.69
2023-01-17T12:59:25.845Z,98005.75
2023-01-17T13:01:58.322Z,98074.66
2023-01-17T13:04:31.853Z,98080.41
2023-01-17T13:07:25.298Z,98089.97
2023-01-17T13:09:58.869Z,98073.66
2023-01-17T13:12:32.624Z,98061.03
2023-01-17T13:15:00.116Z,98064.81
2023-01-17T13:17:44.842Z,98071.91
2023-01-17T13:20:31.632Z,98080.41
2023-01-17T13:23:08.985Z,97967.50
2023-01-17T13:25:49.273Z,98064.16
2023-01-17T13:28:39.470Z,98049.16
2023-01-17T13:31:24.437Z,98041.69
2023-01-17T13:33:50.748Z,98079.59
2023-01-17T13:36:50.724Z,98024.16
2023-01-17T13:39:45.583Z,98051.91
2023-01-17T13:42:18.865Z,98088.09
2023-01-17T13:44:46.285Z,98086.88
2023-01-17T13:47:18.536Z,98090.41
2023-01-17T13:49:51.257Z,98077.88
2023-01-17T13:52:20.383Z,98094.19
2023-01-17T13:55:02.762Z,98055.09
2023-01-17T13:57:41.753Z,98096.91
2023-01-17T14:00:21.394Z,98095.09
2023-01-17T14:02:49.336Z,98082.59
2023-01-17T14:05:21.295Z,98096.09
2023-01-17T14:07:54.689Z,97975.81
2023-01-17T14:10:38.669Z,98066.97
2023-01-17T14:13:25.275Z,98031.47
2023-01-17T14:15:52.265Z,98024.56
2023-01-17T14:18:34.161Z,98116.50
2023-01-17T14:21:33.077Z,98122.16
2023-01-17T14:24:04.023Z,97902.72
2023-01-17T14:26:49.686Z,98094.06
2023-01-17T14:29:56.702Z,98111.16
2023-01-17T14:32:27.906Z,98027.16
2023-01-17T14:34:54.820Z,98096.84
2023-01-17T14:37:44.563Z,98104.41
2023-01-17T14:40:25.941Z,98099.81
2023-01-17T14:43:01.174Z,98083.69
2023-01-17T14:45:30.833Z,98098.41
2023-01-17T14:47:59.906Z,98096.84
2023-01-17T14:50:41.933Z,98087.69
2023-01-17T14:53:11.284Z,98117.91
2023-01-17T14:55:39.251Z,98015.13
2023-01-17T14:58:05.630Z,97941.66
2023-01-17T15:00:34.990Z,98039.56
2023-01-17T15:03:02.227Z,97953.88
2023-01-17T15:05:30.218Z,98072.38
2023-01-17T15:07:58.063Z,97991.31
2023-01-17T15:10:32.036Z,98103.97
2023-01-17T15:13:07.943Z,98122.34
2023-01-17T15:15:38.329Z,98102.97
2023-01-17T15:18:13.899Z,98120.78
2023-01-17T15:21:02.124Z,98111.91
2023-01-17T15:23:34.495Z,98124.59
2023-01-17T15:26:03.332Z,98067.34
2023-01-17T15:28:30.494Z,98109.31
2023-01-17T15:31:06.498Z,97962.56
2023-01-17T15:33:35.259Z,98031.84
2023-01-17T15:36:04.440Z,97996.81
2023-01-17T15:38:38.612Z,98000.66
2023-01-17T15:41:10.570Z,98090.56
2023-01-17T15:43:38.455Z,98089.88
2023-01-17T15:46:05.358Z,98103.03
2023-01-17T15:48:42.129Z,98107.59
2023-01-17T15:51:11.839Z,98130.25
2023-01-17T15:53:41.817Z,98128.94
2023-01-17T15:56:31.887Z,98128.69
2023-01-17T15:59:22.262Z,98141.16
2023-01-17T16:01:56.557Z,98084.88
2023-01-17T16:04:32.704Z,98047.44
2023-01-17T16:07:10.677Z,98139.31
2023-01-17T16:09:46.843Z,98146.69
2023-01-17T16:12:13.269Z,98020.53
2023-01-17T16:14:56.392Z,98108.25
2023-01-17T16:17:28.457Z,98038.41
2023-01-17T16:19:54.825Z,98053.72
2023-01-17T16:22:21.489Z,98168.25
2023-01-17T16:24:49.045Z,98079.47
2023-01-17T16:27:15.443Z,98151.53
2023-01-17T16:29:42.089Z,98127.91
2023-01-17T16:32:08.684Z,98111.78
2023-01-17T16:34:35.814Z,98108.78
2023-01-17T16:37:04.086Z,98165.84
2023-01-17T16:39:30.786Z,98175.19
2023-01-17T16:42:04.083Z,98043.19
2023-01-17T16:44:31.435Z,98171.09
2023-01-17T16:47:02.259Z,98077.44
2023-01-17T16:49:32.172Z,98152.53
2023-01-17T16:51:59.362Z,98064.41
2023-01-17T16:54:28.621Z,98075.97
2023-01-17T16:56:55.065Z,98015.59
2023-01-17T16:59:24.055Z,97981.91
2023-01-17T17:01:50.594Z,97973.00
2023-01-17T17:04:17.083Z,97940.28
2023-01-17T17:06:46.466Z,98086.88
2023-01-17T17:09:12.869Z,98021.53
2023-01-17T17:11:42.031Z,98096.66
2023-01-17T17:14:09.360Z,98013.09
2023-01-17T17:16:44.742Z,98063.75
2023-01-17T17:19:11.168Z,98101.78
2023-01-17T17:21:37.833Z,98187.63
2023-01-17T17:24:04.656Z,98164.31
2023-01-17T17:26:34.637Z,98207.13
2023-01-17T17:29:01.891Z,98159.88
2023-01-17T17:31:28.377Z,98098.50
2023-01-17T17:33:59.800Z,98141.31
2023-01-17T17:36:26.666Z,98130.66
2023-01-17T17:38:57.350Z,98054.44
2023-01-17T17:41:28.712Z,98098.47
2023-01-17T17:43:55.644Z,98106.81
2023-01-17T17:46:24.477Z,98226.03
2023-01-17T17:48:50.976Z,98206.63
2023-01-17T17:51:41.373Z,97950.28
2023-01-17T17:54:11.576Z,98118.38
2023-01-17T17:56:39.143Z,98212.16
2023-01-17T17:59:08.299Z,98239.72
2023-01-17T18:01:38.112Z,98235.22
2023-01-17T18:04:07.337Z,98221.06
2023-01-17T18:06:34.877Z,97990.72
2023-01-17T18:09:02.707Z,98078.22
2023-01-17T18:11:29.334Z,98077.34
2023-01-17T18:14:01.199Z,98070.66
2023-01-17T18:16:36.406Z,98076.16
2023-01-17T18:19:07.100Z,98248.59
2023-01-17T18:21:38.368Z,98239.28
2023-01-17T18:24:08.851Z,98253.84
2023-01-17T18:26:41.516Z,98249.69
2023-01-17T18:29:10.951Z,98170.88
2023-01-17T18:31:37.497Z,98126.03
2023-01-17T18:34:07.128Z,98000.53
2023-01-17T18:36:36.944Z,98230.06
2023-01-17T18:39:19.226Z,98158.56
2023-01-17T18:41:46.518Z,98120.00
2023-01-17T18:44:13.171Z,98117.75
2023-01-17T18:46:40.461Z,98103.81
2023-01-17T18:49:07.454Z,98169.00
2023-01-17T18:51:34.665Z,98180.00
2023-01-17T18:54:07.374Z,98172.16
2023-01-17T18:56:35.152Z,98023.97
2023-01-17T18:59:02.397Z,98152.25
2023-01-17T19:01:30.767Z,98191.81
2023-01-17T19:03:59.100Z,98219.50
2023-01-17T19:06:37.310Z,98262.50
2023-01-17T19:09:05.438Z,98194.78
2023-01-17T19:11:31.896Z,98038.88
2023-01-17T19:13:58.293Z,98184.53
2023-01-17T19:16:30.901Z,98275.22
2023-01-17T19:19:02.739Z,98284.91
2023-01-17T19:21:29.875Z,98122.69
2023-01-17T19:23:57.648Z,98121.56
2023-01-17T19:26:30.577Z,98189.78
2023-01-17T19:29:02.864Z,98074.28
2023-01-17T19:31:30.972Z,98292.81
2023-01-17T19:34:00.322Z,98074.00
2023-01-17T19:36:31.197Z,98301.94
2023-01-17T19:39:06.112Z,98050.16
2023-01-17T19:41:50.264Z,98280.16
2023-01-17T19:44:16.757Z,98212.03
2023-01-17T19:46:51.052Z,98087.75
2023-01-17T19:49:23.808Z,98040.75
2023-01-17T19:51:53.120Z,98077.34
2023-01-17T19:54:19.573Z,98316.59
2023-01-17T19:56:45.977Z,98227.09
2023-01-17T19:59:14.961Z,98216.13
2023-01-17T20:01:43.594Z,98051.09
2023-01-17T20:04:10.115Z,98245.81
2023-01-17T20:06:45.582Z,98117.22
2023-01-17T20:09:13.137Z,98120.41
2023-01-17T20:11:42.219Z,98230.25
2023-01-17T20:14:13.141Z,98309.72
2023-01-17T20:16:39.564Z,98320.63
2023-01-17T20:19:06.076Z,98312.00
2023-01-17T20:21:32.875Z,98347.16
2023-01-17T20:24:00.007Z,98336.53
2023-01-17T20:26:34.340Z,98350.38
2023-01-17T20:29:02.927Z,98082.97
2023-01-17T20:31:30.020Z,98329.41
2023-01-17T20:33:56.551Z,98314.31
2023-01-17T20:36:25.081Z,98247.25
2023-01-17T20:38:53.357Z,98329.41
2023-01-17T20:41:25.492Z,98332.72
2023-01-17T20:43:54.308Z,98237.09
2023-01-17T20:46:23.217Z,98227.00
2023-01-17T20:48:51.913Z,98283.25
2023-01-17T20:51:19.753Z,98367.63
2023-01-17T20:53:50.664Z,98338.16
2023-01-17T20:56:20.971Z,98377.19
2023-01-17T20:58:51.642Z,98241.72
2023-01-17T21:01:21.697Z,98268.94
2023-01-17T21:03:51.541Z,98242.94
2023-01-17T21:06:19.130Z,98376.47
2023-01-17T21:08:46.956Z,98379.78
2023-01-17T21:11:16.152Z,98250.31
2023-01-17T21:13:42.968Z,98247.53
2023-01-17T21:16:12.617Z,98296.81
2023-01-17T21:18:38.958Z,98315.09
2023-01-17T21:21:14.260Z,98390.03
2023-01-17T21:23:42.059Z,98391.63
2023-01-17T21:26:12.072Z,98272.53
2023-01-17T21:28:40.195Z,98282.78
2023-01-17T21:31:24.655Z,98389.19
2023-01-17T21:34:11.561Z,98273.16
2023-01-17T21:36:40.522Z,98142.59
2023-01-17T21:39:11.689Z,98276.06
2023-01-17T21:41:40.956Z,98402.31
2023-01-17T21:44:19.717Z,98344.72
2023-01-17T21:46:46.864Z,98391.38
2023-01-17T21:49:13.562Z,98398.84
2023-01-17T21:51:53.217Z,98387.06
2023-01-17T21:54:40.553Z,98346.34
2023-01-17T21:57:26.519Z,98417.56
2023-01-17T21:59:52.904Z,98384.16
2023-01-17T22:02:19.280Z,98404.63
2023-01-17T22:04:45.623Z,98343.66
2023-01-17T22:07:12.017Z,98406.16
2023-01-17T22:09:38.481Z,98430.16
2023-01-17T22:12:05.279Z,98396.91
2023-01-17T22:14:32.494Z,98416.56
2023-01-17T22:16:58.846Z,98378.31
2023-01-17T22:19:25.165Z,98426.88
2023-01-17T22:21:51.533Z,98414.00
2023-01-17T22:24:17.968Z,98416.84
2023-01-17T22:26:44.565Z,98391.91
2023-01-17T22:29:11.337Z,98418.53
2023-01-17T22:31:37.717Z,98392.75
2023-01-17T22:34:05.036Z,98437.75
2023-01-17T22:36:34.635Z,98409.78
2023-01-17T22:39:01.149Z,98406.78
2023-01-17T22:41:34.509Z,98392.16
2023-01-17T22:44:08.389Z,98417.31
2023-01-17T22:46:40.424Z,98398.75
2023-01-17T22:49:08.312Z,98417.59
2023-01-17T22:51:35.444Z,98401.28
2023-01-17T22:54:01.911Z,98380.00
2023-01-17T22:56:31.368Z,98445.16
2023-01-17T22:59:00.540Z,98397.53
2023-01-17T23:01:29.662Z,98435.72
2023-01-17T23:03:58.430Z,98348.34
2023-01-17T23:06:30.375Z,98437.63
2023-01-17T23:08:59.404Z,98434.09
2023-01-17T23:11:46.138Z,98438.47
2023-01-17T23:14:28.086Z,98437.63
2023-01-17T23:17:21.820Z,98422.34
2023-01-17T23:19:54.255Z,98429.25
2023-01-17T23:22:23.158Z,98428.31
2023-01-17T23:24:54.565Z,98439.38
2023-01-17T23:27:39.756Z,98436.81
2023-01-17T23:30:12.131Z,98413.09
2023-01-17T23:32:39.961Z,98409.75
2023-01-17T23:35:06.916Z,98442.81
2023-01-17T23:37:51.956Z,98397.06
2023-01-17T23:40:18.486Z,98417.53
2023-01-17T23:43:03.568Z,98406.50
2023-01-17T23:45:29.963Z,98417.47
2023-01-17T23:47:56.414Z,98423.41
2023-01-17T23:50:22.748Z,98376.34
2023-01-17T23:52:49.068Z,98409.66
2023-01-17T23:55:15.562Z,98395.53
2023-01-17T23:57:41.919Z,98374.25
